sensor_id;sensor_type;location;lat;lon;timestamp;pressure;altitude;pressure_sealevel;temperature;humidity
61528;BME280;47395;42.032;-8.634;2024-03-02T00:01:36;75873.63;;;-148.63;45.88
61528;BME280;47395;42.032;-8.634;2024-03-02T00:03:38;75905.63;;;-148.63;46.12
61528;BME280;47395;42.032;-8.634;2024-03-02T00:05:39;75929.63;;;-148.63;45.86
61528;BME280;47395;42.032;-8.634;2024-03-02T00:07:44;75905.63;;;-148.63;45.99
61528;BME280;47395;42.032;-8.634;2024-03-02T00:09:45;75871.63;;;-148.63;45.60
61528;BME280;47395;42.032;-8.634;2024-03-02T00:11:46;75783.59;;;-148.63;44.79
61528;BME280;47395;42.032;-8.634;2024-03-02T00:13:48;75791.59;;;-148.63;44.53
61528;BME280;47395;42.032;-8.634;2024-03-02T00:15:55;75847.59;;;-148.63;45.19
61528;BME280;47395;42.032;-8.634;2024-03-02T00:17:56;75769.59;;;-148.63;44.46
61528;BME280;47395;42.032;-8.634;2024-03-02T00:19:57;75889.63;;;-148.63;45.65
61528;BME280;47395;42.032;-8.634;2024-03-02T00:22:00;75819.59;;;-148.63;44.98
61528;BME280;47395;42.032;-8.634;2024-03-02T00:24:12;75807.59;;;-148.63;44.69
61528;BME280;47395;42.032;-8.634;2024-03-02T00:26:18;75845.59;;;-148.63;45.06
61528;BME280;47395;42.032;-8.634;2024-03-02T00:28:33;75937.66;;;-148.63;45.88
61528;BME280;47395;42.032;-8.634;2024-03-02T00:31:12;75797.59;;;-148.63;44.94
61528;BME280;47395;42.032;-8.634;2024-03-02T00:33:14;75859.63;;;-148.63;45.18
61528;BME280;47395;42.032;-8.634;2024-03-02T00:35:15;75821.59;;;-148.63;45.46
61528;BME280;47395;42.032;-8.634;2024-03-02T00:37:15;75695.56;;;-148.63;43.89
61528;BME280;47395;42.032;-8.634;2024-03-02T00:39:16;75761.56;;;-148.63;44.34
61528;BME280;47395;42.032;-8.634;2024-03-02T00:41:26;75717.56;;;-148.63;43.96
61528;BME280;47395;42.032;-8.634;2024-03-02T00:44:04;75621.53;;;-148.63;43.09
61528;BME280;47395;42.032;-8.634;2024-03-02T00:46:06;75647.53;;;-148.63;42.92
61528;BME280;47395;42.032;-8.634;2024-03-02T00:48:08;75593.53;;;-148.63;42.44
61528;BME280;47395;42.032;-8.634;2024-03-02T00:50:09;75621.53;;;-148.63;43.25
61528;BME280;47395;42.032;-8.634;2024-03-02T00:52:11;75617.53;;;-148.63;42.97
61528;BME280;47395;42.032;-8.634;2024-03-02T00:54:13;75619.53;;;-148.63;43.06
61528;BME280;47395;42.032;-8.634;2024-03-02T00:56:14;75689.56;;;-148.63;43.77
61528;BME280;47395;42.032;-8.634;2024-03-02T00:58:16;75627.53;;;-148.63;43.36
61528;BME280;47395;42.032;-8.634;2024-03-02T01:00:17;75727.56;;;-148.63;43.94
61528;BME280;47395;42.032;-8.634;2024-03-02T01:02:18;75785.59;;;-148.63;45.00
61528;BME280;47395;42.032;-8.634;2024-03-02T01:04:20;75737.56;;;-148.63;44.53
61528;BME280;47395;42.032;-8.634;2024-03-02T01:06:21;75845.59;;;-148.63;45.90
61528;BME280;47395;42.032;-8.634;2024-03-02T01:08:23;75847.59;;;-148.63;45.26
61528;BME280;47395;42.032;-8.634;2024-03-02T01:10:24;75809.59;;;-148.63;45.59
61528;BME280;47395;42.032;-8.634;2024-03-02T01:12:26;75763.59;;;-148.63;45.13
61528;BME280;47395;42.032;-8.634;2024-03-02T01:14:27;75795.59;;;-148.63;45.54
61528;BME280;47395;42.032;-8.634;2024-03-02T01:16:28;75733.56;;;-148.63;45.04
61528;BME280;47395;42.032;-8.634;2024-03-02T01:18:29;75705.56;;;-148.63;44.69
61528;BME280;47395;42.032;-8.634;2024-03-02T01:20:31;75713.56;;;-148.63;44.99
61528;BME280;47395;42.032;-8.634;2024-03-02T01:22:32;75739.56;;;-148.63;45.16
61528;BME280;47395;42.032;-8.634;2024-03-02T01:24:33;75739.56;;;-148.63;45.07
61528;BME280;47395;42.032;-8.634;2024-03-02T01:26:34;75743.56;;;-148.63;45.33
61528;BME280;47395;42.032;-8.634;2024-03-02T01:28:35;75725.56;;;-148.63;44.96
61528;BME280;47395;42.032;-8.634;2024-03-02T01:30:36;75693.56;;;-148.63;44.56
61528;BME280;47395;42.032;-8.634;2024-03-02T01:32:40;75719.56;;;-148.63;45.07
61528;BME280;47395;42.032;-8.634;2024-03-02T01:34:41;75703.56;;;-148.63;45.51
61528;BME280;47395;42.032;-8.634;2024-03-02T01:36:42;75701.56;;;-148.63;45.19
61528;BME280;47395;42.032;-8.634;2024-03-02T01:38:43;75697.56;;;-148.63;45.42
61528;BME280;47395;42.032;-8.634;2024-03-02T01:40:44;75705.56;;;-148.63;45.82
61528;BME280;47395;42.032;-8.634;2024-03-02T01:42:45;75713.56;;;-148.63;45.41
61528;BME280;47395;42.032;-8.634;2024-03-02T01:44:46;75709.56;;;-148.63;45.42
61528;BME280;47395;42.032;-8.634;2024-03-02T01:46:47;75697.56;;;-148.63;45.47
61528;BME280;47395;42.032;-8.634;2024-03-02T01:48:48;75645.53;;;-148.63;44.73
61528;BME280;47395;42.032;-8.634;2024-03-02T01:50:49;75653.53;;;-148.63;44.89
61528;BME280;47395;42.032;-8.634;2024-03-02T01:52:50;75691.56;;;-148.63;45.03
61528;BME280;47395;42.032;-8.634;2024-03-02T01:54:51;75629.53;;;-148.63;44.35
61528;BME280;47395;42.032;-8.634;2024-03-02T01:56:53;75577.50;;;-148.63;43.56
61528;BME280;47395;42.032;-8.634;2024-03-02T01:58:54;75605.53;;;-148.63;43.63
61528;BME280;47395;42.032;-8.634;2024-03-02T02:00:55;75537.50;;;-148.63;42.97
61528;BME280;47395;42.032;-8.634;2024-03-02T02:02:56;75609.53;;;-148.63;43.36
61528;BME280;47395;42.032;-8.634;2024-03-02T02:04:58;75589.53;;;-148.63;43.30
61528;BME280;47395;42.032;-8.634;2024-03-02T02:06:59;75607.53;;;-148.63;43.46
61528;BME280;47395;42.032;-8.634;2024-03-02T02:09:00;75599.53;;;-148.63;43.81
61528;BME280;47395;42.032;-8.634;2024-03-02T02:11:01;75623.53;;;-148.63;43.33
61528;BME280;47395;42.032;-8.634;2024-03-02T02:13:02;75601.53;;;-148.63;42.93
61528;BME280;47395;42.032;-8.634;2024-03-02T02:15:27;75577.50;;;-148.63;42.53
61528;BME280;47395;42.032;-8.634;2024-03-02T02:17:28;75649.53;;;-148.63;43.31
61528;BME280;47395;42.032;-8.634;2024-03-02T02:19:29;75613.53;;;-148.63;43.28
61528;BME280;47395;42.032;-8.634;2024-03-02T02:21:30;75611.53;;;-148.63;43.33
61528;BME280;47395;42.032;-8.634;2024-03-02T02:23:31;75635.53;;;-148.63;43.66
61528;BME280;47395;42.032;-8.634;2024-03-02T02:25:32;75561.50;;;-148.63;43.02
61528;BME280;47395;42.032;-8.634;2024-03-02T02:27:33;75621.53;;;-148.63;43.43
61528;BME280;47395;42.032;-8.634;2024-03-02T02:29:34;75655.53;;;-148.63;43.63
61528;BME280;47395;42.032;-8.634;2024-03-02T02:31:38;75629.53;;;-148.63;43.39
61528;BME280;47395;42.032;-8.634;2024-03-02T02:33:40;75669.53;;;-148.63;43.73
61528;BME280;47395;42.032;-8.634;2024-03-02T02:35:41;75625.53;;;-148.63;43.35
61528;BME280;47395;42.032;-8.634;2024-03-02T02:37:43;75655.53;;;-148.63;43.23
61528;BME280;47395;42.032;-8.634;2024-03-02T02:39:44;75565.50;;;-148.63;42.41
61528;BME280;47395;42.032;-8.634;2024-03-02T02:41:47;75587.53;;;-148.63;42.60
61528;BME280;47395;42.032;-8.634;2024-03-02T02:43:48;75569.50;;;-148.63;42.78
61528;BME280;47395;42.032;-8.634;2024-03-02T02:45:49;75543.50;;;-148.63;42.12
61528;BME280;47395;42.032;-8.634;2024-03-02T02:47:51;75549.50;;;-148.63;42.71
61528;BME280;47395;42.032;-8.634;2024-03-02T02:49:52;75583.53;;;-148.63;43.20
61528;BME280;47395;42.032;-8.634;2024-03-02T02:51:53;75567.50;;;-148.63;43.11
61528;BME280;47395;42.032;-8.634;2024-03-02T02:53:54;75577.50;;;-148.63;43.22
61528;BME280;47395;42.032;-8.634;2024-03-02T02:55:56;75515.50;;;-148.63;42.57
61528;BME280;47395;42.032;-8.634;2024-03-02T02:57:57;75543.50;;;-148.63;42.54
61528;BME280;47395;42.032;-8.634;2024-03-02T02:59:58;75565.50;;;-148.63;42.95
61528;BME280;47395;42.032;-8.634;2024-03-02T03:01:59;75543.50;;;-148.63;42.38
61528;BME280;47395;42.032;-8.634;2024-03-02T03:04:00;75511.50;;;-148.63;42.40
61528;BME280;47395;42.032;-8.634;2024-03-02T03:06:00;75527.50;;;-148.63;42.54
61528;BME280;47395;42.032;-8.634;2024-03-02T03:08:03;75525.50;;;-148.63;42.73
61528;BME280;47395;42.032;-8.634;2024-03-02T03:10:05;75535.50;;;-148.63;43.33
61528;BME280;47395;42.032;-8.634;2024-03-02T03:12:07;75487.50;;;-148.63;42.70
61528;BME280;47395;42.032;-8.634;2024-03-02T03:14:08;75497.50;;;-148.63;42.79
61528;BME280;47395;42.032;-8.634;2024-03-02T03:16:10;75493.50;;;-148.63;43.13
61528;BME280;47395;42.032;-8.634;2024-03-02T03:18:11;75499.50;;;-148.63;43.11
61528;BME280;47395;42.032;-8.634;2024-03-02T03:20:12;75529.50;;;-148.63;43.78
61528;BME280;47395;42.032;-8.634;2024-03-02T03:22:16;75565.50;;;-148.63;44.15
61528;BME280;47395;42.032;-8.634;2024-03-02T03:24:17;75487.50;;;-148.63;43.66
61528;BME280;47395;42.032;-8.634;2024-03-02T03:26:18;75501.50;;;-148.63;43.62
61528;BME280;47395;42.032;-8.634;2024-03-02T03:28:18;75513.50;;;-148.63;43.81
61528;BME280;47395;42.032;-8.634;2024-03-02T03:30:19;75445.47;;;-148.63;43.47
61528;BME280;47395;42.032;-8.634;2024-03-02T03:32:21;75423.47;;;-148.63;43.48
61528;BME280;47395;42.032;-8.634;2024-03-02T03:34:22;75481.50;;;-148.63;43.89
61528;BME280;47395;42.032;-8.634;2024-03-02T03:36:23;75479.50;;;-148.63;44.16
61528;BME280;47395;42.032;-8.634;2024-03-02T03:38:24;75493.50;;;-148.63;44.50
61528;BME280;47395;42.032;-8.634;2024-03-02T03:40:25;75449.47;;;-148.63;44.12
61528;BME280;47395;42.032;-8.634;2024-03-02T03:42:26;75489.50;;;-148.63;44.76
61528;BME280;47395;42.032;-8.634;2024-03-02T03:44:27;75459.47;;;-148.63;44.35
61528;BME280;47395;42.032;-8.634;2024-03-02T03:46:28;75501.50;;;-148.63;44.87
61528;BME280;47395;42.032;-8.634;2024-03-02T03:48:29;75517.50;;;-148.63;45.18
61528;BME280;47395;42.032;-8.634;2024-03-02T03:50:31;75519.50;;;-148.63;45.89
61528;BME280;47395;42.032;-8.634;2024-03-02T03:52:32;75509.50;;;-148.63;45.80
61528;BME280;47395;42.032;-8.634;2024-03-02T03:54:33;75531.50;;;-148.63;46.12
61528;BME280;47395;42.032;-8.634;2024-03-02T03:56:34;75537.50;;;-148.63;46.24
61528;BME280;47395;42.032;-8.634;2024-03-02T03:58:36;75475.50;;;-148.63;46.16
61528;BME280;47395;42.032;-8.634;2024-03-02T04:00:37;75495.50;;;-148.63;46.61
61528;BME280;47395;42.032;-8.634;2024-03-02T04:02:38;75573.50;;;-148.63;47.80
61528;BME280;47395;42.032;-8.634;2024-03-02T04:04:39;75549.50;;;-148.63;47.96
61528;BME280;47395;42.032;-8.634;2024-03-02T04:06:40;75525.50;;;-148.63;47.83
61528;BME280;47395;42.032;-8.634;2024-03-02T04:08:41;75521.50;;;-148.63;47.40
61528;BME280;47395;42.032;-8.634;2024-03-02T04:10:42;75529.50;;;-148.63;48.01
61528;BME280;47395;42.032;-8.634;2024-03-02T04:12:43;75525.50;;;-148.63;47.63
61528;BME280;47395;42.032;-8.634;2024-03-02T04:14:44;75473.47;;;-148.63;47.48
61528;BME280;47395;42.032;-8.634;2024-03-02T04:16:45;75503.50;;;-148.63;48.11
61528;BME280;47395;42.032;-8.634;2024-03-02T04:18:45;75439.47;;;-148.63;47.30
61528;BME280;47395;42.032;-8.634;2024-03-02T04:20:46;75403.47;;;-148.63;46.23
61528;BME280;47395;42.032;-8.634;2024-03-02T04:22:47;75389.47;;;-148.63;46.27
61528;BME280;47395;42.032;-8.634;2024-03-02T04:24:48;75393.47;;;-148.63;46.51
61528;BME280;47395;42.032;-8.634;2024-03-02T04:26:50;75449.47;;;-148.63;47.02
61528;BME280;47395;42.032;-8.634;2024-03-02T04:28:51;75425.47;;;-148.63;47.24
61528;BME280;47395;42.032;-8.634;2024-03-02T04:30:52;75497.50;;;-148.63;47.82
61528;BME280;47395;42.032;-8.634;2024-03-02T04:32:53;75423.47;;;-148.63;47.34
61528;BME280;47395;42.032;-8.634;2024-03-02T04:34:54;75481.50;;;-148.63;47.83
61528;BME280;47395;42.032;-8.634;2024-03-02T04:36:55;75479.50;;;-148.63;48.22
61528;BME280;47395;42.032;-8.634;2024-03-02T04:38:56;75413.47;;;-148.63;47.52
61528;BME280;47395;42.032;-8.634;2024-03-02T04:40:57;75381.47;;;-148.63;47.39
61528;BME280;47395;42.032;-8.634;2024-03-02T04:42:58;75381.47;;;-148.63;47.84
61528;BME280;47395;42.032;-8.634;2024-03-02T04:45:03;75401.47;;;-148.63;48.01
61528;BME280;47395;42.032;-8.634;2024-03-02T04:47:05;75419.47;;;-148.63;48.00
61528;BME280;47395;42.032;-8.634;2024-03-02T04:49:06;75311.44;;;-148.63;46.71
61528;BME280;47395;42.032;-8.634;2024-03-02T04:51:06;75317.44;;;-148.63;46.97
61528;BME280;47395;42.032;-8.634;2024-03-02T04:53:07;75283.44;;;-148.63;46.42
61528;BME280;47395;42.032;-8.634;2024-03-02T04:55:08;75377.47;;;-148.63;47.59
61528;BME280;47395;42.032;-8.634;2024-03-02T04:57:48;75343.44;;;-148.63;47.13
61528;BME280;47395;42.032;-8.634;2024-03-02T04:59:51;75367.47;;;-148.63;47.37
61528;BME280;47395;42.032;-8.634;2024-03-02T05:04:16;75429.47;;;-148.63;48.54
61528;BME280;47395;42.032;-8.634;2024-03-02T05:06:17;75487.50;;;-148.63;48.95
61528;BME280;47395;42.032;-8.634;2024-03-02T05:08:18;75401.47;;;-148.63;48.17
61528;BME280;47395;42.032;-8.634;2024-03-02T05:10:19;75401.47;;;-148.63;47.92
61528;BME280;47395;42.032;-8.634;2024-03-02T05:12:20;75399.47;;;-148.63;47.89
61528;BME280;47395;42.032;-8.634;2024-03-02T05:14:24;75341.44;;;-148.63;47.81
61528;BME280;47395;42.032;-8.634;2024-03-02T05:16:25;75449.47;;;-148.63;48.98
61528;BME280;47395;42.032;-8.634;2024-03-02T05:18:26;75405.47;;;-148.63;48.27
61528;BME280;47395;42.032;-8.634;2024-03-02T05:20:26;75421.47;;;-148.63;48.81
61528;BME280;47395;42.032;-8.634;2024-03-02T05:22:27;75423.47;;;-148.63;49.27
61528;BME280;47395;42.032;-8.634;2024-03-02T05:24:29;75435.47;;;-148.63;49.35
61528;BME280;47395;42.032;-8.634;2024-03-02T05:26:30;75425.47;;;-148.63;49.41
61528;BME280;47395;42.032;-8.634;2024-03-02T05:28:31;75379.47;;;-148.63;48.92
61528;BME280;47395;42.032;-8.634;2024-03-02T05:30:32;75349.47;;;-148.63;48.82
61528;BME280;47395;42.032;-8.634;2024-03-02T05:32:36;75381.47;;;-148.63;49.48
61528;BME280;47395;42.032;-8.634;2024-03-02T05:34:37;75359.47;;;-148.63;49.21
61528;BME280;47395;42.032;-8.634;2024-03-02T05:36:38;75395.47;;;-148.63;49.47
61528;BME280;47395;42.032;-8.634;2024-03-02T05:38:39;75377.47;;;-148.63;49.53
61528;BME280;47395;42.032;-8.634;2024-03-02T05:40:40;75351.47;;;-148.63;49.14
61528;BME280;47395;42.032;-8.634;2024-03-02T05:42:41;75347.44;;;-148.63;49.16
61528;BME280;47395;42.032;-8.634;2024-03-02T05:44:42;75379.47;;;-148.63;49.95
61528;BME280;47395;42.032;-8.634;2024-03-02T05:46:43;75379.47;;;-148.63;49.30
61528;BME280;47395;42.032;-8.634;2024-03-02T05:48:44;75321.44;;;-148.63;48.62
61528;BME280;47395;42.032;-8.634;2024-03-02T05:50:45;75361.47;;;-148.63;49.04
61528;BME280;47395;42.032;-8.634;2024-03-02T05:52:46;75337.44;;;-148.63;48.78
61528;BME280;47395;42.032;-8.634;2024-03-02T05:54:47;75301.44;;;-148.63;48.83
61528;BME280;47395;42.032;-8.634;2024-03-02T05:56:49;75347.44;;;-148.63;48.40
61528;BME280;47395;42.032;-8.634;2024-03-02T05:58:50;75341.44;;;-148.63;48.93
61528;BME280;47395;42.032;-8.634;2024-03-02T06:01:09;75397.47;;;-148.63;49.53
61528;BME280;47395;42.032;-8.634;2024-03-02T06:03:10;75353.47;;;-148.63;48.63
61528;BME280;47395;42.032;-8.634;2024-03-02T06:05:11;75309.44;;;-148.63;48.41
61528;BME280;47395;42.032;-8.634;2024-03-02T06:07:12;75355.47;;;-148.63;49.21
61528;BME280;47395;42.032;-8.634;2024-03-02T06:09:14;75367.47;;;-148.63;49.57
61528;BME280;47395;42.032;-8.634;2024-03-02T06:11:17;75365.47;;;-148.63;49.93
61528;BME280;47395;42.032;-8.634;2024-03-02T06:13:18;75331.44;;;-148.63;49.76
61528;BME280;47395;42.032;-8.634;2024-03-02T06:15:19;75311.44;;;-148.63;49.60
61528;BME280;47395;42.032;-8.634;2024-03-02T06:17:20;75355.47;;;-148.63;50.13
61528;BME280;47395;42.032;-8.634;2024-03-02T06:19:20;75365.47;;;-148.63;50.38
61528;BME280;47395;42.032;-8.634;2024-03-02T06:21:22;75321.44;;;-148.63;49.91
61528;BME280;47395;42.032;-8.634;2024-03-02T06:23:23;75305.44;;;-148.63;50.23
61528;BME280;47395;42.032;-8.634;2024-03-02T06:25:24;75335.44;;;-148.63;50.46
61528;BME280;47395;42.032;-8.634;2024-03-02T06:27:25;75293.44;;;-148.63;49.91
61528;BME280;47395;42.032;-8.634;2024-03-02T06:29:26;75341.44;;;-148.63;50.43
61528;BME280;47395;42.032;-8.634;2024-03-02T06:31:27;75327.44;;;-148.63;50.73
61528;BME280;47395;42.032;-8.634;2024-03-02T06:33:28;75293.44;;;-148.63;50.01
61528;BME280;47395;42.032;-8.634;2024-03-02T06:35:29;75295.44;;;-148.63;49.81
61528;BME280;47395;42.032;-8.634;2024-03-02T06:37:30;75313.44;;;-148.63;49.87
61528;BME280;47395;42.032;-8.634;2024-03-02T06:39:31;75321.44;;;-148.63;50.08
61528;BME280;47395;42.032;-8.634;2024-03-02T06:41:34;75263.44;;;-148.63;49.27
61528;BME280;47395;42.032;-8.634;2024-03-02T06:43:35;75299.44;;;-148.63;50.19
61528;BME280;47395;42.032;-8.634;2024-03-02T06:45:36;75281.44;;;-148.63;49.73
61528;BME280;47395;42.032;-8.634;2024-03-02T06:47:37;75259.44;;;-148.63;49.48
61528;BME280;47395;42.032;-8.634;2024-03-02T06:49:38;75275.44;;;-148.63;49.61
61528;BME280;47395;42.032;-8.634;2024-03-02T06:51:39;75263.44;;;-148.63;49.90
61528;BME280;47395;42.032;-8.634;2024-03-02T06:53:40;75283.44;;;-148.63;49.95
61528;BME280;47395;42.032;-8.634;2024-03-02T06:55:41;75207.41;;;-148.63;49.17
61528;BME280;47395;42.032;-8.634;2024-03-02T06:57:42;75241.44;;;-148.63;50.03
61528;BME280;47395;42.032;-8.634;2024-03-02T06:59:43;75237.44;;;-148.63;49.75
61528;BME280;47395;42.032;-8.634;2024-03-02T07:01:43;75241.44;;;-148.63;49.82
61528;BME280;47395;42.032;-8.634;2024-03-02T07:03:44;75213.41;;;-148.63;49.32
61528;BME280;47395;42.032;-8.634;2024-03-02T07:05:46;75289.44;;;-148.63;50.14
61528;BME280;47395;42.032;-8.634;2024-03-02T07:07:48;75237.44;;;-148.63;49.98
61528;BME280;47395;42.032;-8.634;2024-03-02T07:09:49;75203.41;;;-148.63;49.77
61528;BME280;47395;42.032;-8.634;2024-03-02T07:11:50;75213.41;;;-148.63;50.09
61528;BME280;47395;42.032;-8.634;2024-03-02T07:13:51;75163.41;;;-148.63;49.18
61528;BME280;47395;42.032;-8.634;2024-03-02T07:15:52;75203.41;;;-148.63;49.84
61528;BME280;47395;42.032;-8.634;2024-03-02T07:18:25;75173.41;;;-148.63;49.03
61528;BME280;47395;42.032;-8.634;2024-03-02T07:20:26;75197.41;;;-148.63;49.83
61528;BME280;47395;42.032;-8.634;2024-03-02T07:22:26;75207.41;;;-148.63;54.38
61528;BME280;47395;42.032;-8.634;2024-03-02T07:24:27;75183.41;;;-148.63;51.96
61528;BME280;47395;42.032;-8.634;2024-03-02T07:26:29;75191.41;;;-148.63;51.68
61528;BME280;47395;42.032;-8.634;2024-03-02T07:28:31;75175.41;;;-148.63;51.75
61528;BME280;47395;42.032;-8.634;2024-03-02T07:30:33;75103.41;;;-148.63;51.21
61528;BME280;47395;42.032;-8.634;2024-03-02T07:32:34;75161.41;;;-148.63;51.71
61528;BME280;47395;42.032;-8.634;2024-03-02T07:34:35;75165.41;;;-148.63;51.35
61528;BME280;47395;42.032;-8.634;2024-03-02T07:36:36;75159.41;;;-148.63;51.93
61528;BME280;47395;42.032;-8.634;2024-03-02T07:38:37;75105.41;;;-148.63;51.05
61528;BME280;47395;42.032;-8.634;2024-03-02T07:40:38;75149.41;;;-148.63;51.42
61528;BME280;47395;42.032;-8.634;2024-03-02T07:42:40;75143.41;;;-148.63;50.78
61528;BME280;47395;42.032;-8.634;2024-03-02T07:44:41;75127.41;;;-148.63;51.07
61528;BME280;47395;42.032;-8.634;2024-03-02T07:46:43;75103.41;;;-148.63;50.93
61528;BME280;47395;42.032;-8.634;2024-03-02T07:48:44;75107.41;;;-148.63;51.16
61528;BME280;47395;42.032;-8.634;2024-03-02T07:50:45;75085.41;;;-148.63;51.27
61528;BME280;47395;42.032;-8.634;2024-03-02T07:52:46;75103.41;;;-148.63;51.63
61528;BME280;47395;42.032;-8.634;2024-03-02T07:54:47;75151.41;;;-148.63;52.56
61528;BME280;47395;42.032;-8.634;2024-03-02T07:56:48;75097.41;;;-148.63;50.88
61528;BME280;47395;42.032;-8.634;2024-03-02T07:58:49;75011.38;;;-148.63;48.94
61528;BME280;47395;42.032;-8.634;2024-03-02T08:00:50;75059.38;;;-148.63;49.51
61528;BME280;47395;42.032;-8.634;2024-03-02T08:02:51;75157.41;;;-148.63;50.00
61528;BME280;47395;42.032;-8.634;2024-03-02T08:04:52;75161.41;;;-148.63;49.64
61528;BME280;47395;42.032;-8.634;2024-03-02T08:06:53;75037.38;;;-148.63;47.35
61528;BME280;47395;42.032;-8.634;2024-03-02T08:08:58;75163.41;;;-148.63;48.19
61528;BME280;47395;42.032;-8.634;2024-03-02T08:11:00;75183.41;;;-148.63;48.61
61528;BME280;47395;42.032;-8.634;2024-03-02T08:13:00;75109.41;;;-148.63;47.79
61528;BME280;47395;42.032;-8.634;2024-03-02T08:15:02;75131.41;;;-148.63;48.03
61528;BME280;47395;42.032;-8.634;2024-03-02T08:17:03;75103.41;;;-148.63;47.34
61528;BME280;47395;42.032;-8.634;2024-03-02T08:19:10;75087.41;;;-148.63;47.32
61528;BME280;47395;42.032;-8.634;2024-03-02T08:21:12;75183.41;;;-148.63;48.30
61528;BME280;47395;42.032;-8.634;2024-03-02T08:23:13;75119.41;;;-148.63;47.65
61528;BME280;47395;42.032;-8.634;2024-03-02T08:25:14;75133.41;;;-148.63;47.77
61528;BME280;47395;42.032;-8.634;2024-03-02T08:27:16;75137.41;;;-148.63;48.66
61528;BME280;47395;42.032;-8.634;2024-03-02T08:29:17;75041.38;;;-148.63;47.18
61528;BME280;47395;42.032;-8.634;2024-03-02T08:31:18;75081.41;;;-148.63;47.76
61528;BME280;47395;42.032;-8.634;2024-03-02T08:33:19;75047.38;;;-148.63;47.26
61528;BME280;47395;42.032;-8.634;2024-03-02T08:35:20;74927.38;;;-148.63;46.19
61528;BME280;47395;42.032;-8.634;2024-03-02T08:37:22;74965.38;;;-148.63;46.85
61528;BME280;47395;42.032;-8.634;2024-03-02T08:39:24;75031.38;;;-148.63;47.18
61528;BME280;47395;42.032;-8.634;2024-03-02T08:41:25;75021.38;;;-148.63;47.73
61528;BME280;47395;42.032;-8.634;2024-03-02T08:43:26;75041.38;;;-148.63;47.30
61528;BME280;47395;42.032;-8.634;2024-03-02T08:45:27;75049.38;;;-148.63;48.17
61528;BME280;47395;42.032;-8.634;2024-03-02T08:47:28;75021.38;;;-148.63;47.21
61528;BME280;47395;42.032;-8.634;2024-03-02T08:49:29;75121.41;;;-148.63;48.64
61528;BME280;47395;42.032;-8.634;2024-03-02T08:51:30;75193.41;;;-148.63;49.55
61528;BME280;47395;42.032;-8.634;2024-03-02T08:53:32;74983.38;;;-148.63;47.19
61528;BME280;47395;42.032;-8.634;2024-03-02T08:55:35;75021.38;;;-148.63;46.00
61528;BME280;47395;42.032;-8.634;2024-03-02T08:57:36;75057.38;;;-148.63;46.70
61528;BME280;47395;42.032;-8.634;2024-03-02T08:59:37;75053.38;;;-148.63;46.67
61528;BME280;47395;42.032;-8.634;2024-03-02T09:01:38;75055.38;;;-148.63;46.57
61528;BME280;47395;42.032;-8.634;2024-03-02T09:03:42;75041.38;;;-148.63;46.60
61528;BME280;47395;42.032;-8.634;2024-03-02T09:05:46;75019.38;;;-148.63;46.32
61528;BME280;47395;42.032;-8.634;2024-03-02T09:07:47;75045.38;;;-148.63;46.33
61528;BME280;47395;42.032;-8.634;2024-03-02T09:09:48;75031.38;;;-148.63;46.49
61528;BME280;47395;42.032;-8.634;2024-03-02T09:11:49;75033.38;;;-148.63;46.16
61528;BME280;47395;42.032;-8.634;2024-03-02T09:13:50;75059.38;;;-148.63;46.32
61528;BME280;47395;42.032;-8.634;2024-03-02T09:15:51;74975.38;;;-148.63;45.41
61528;BME280;47395;42.032;-8.634;2024-03-02T09:17:52;75075.41;;;-148.63;46.61
61528;BME280;47395;42.032;-8.634;2024-03-02T09:19:53;74951.38;;;-148.63;45.21
61528;BME280;47395;42.032;-8.634;2024-03-02T09:21:54;74909.38;;;-148.63;44.67
61528;BME280;47395;42.032;-8.634;2024-03-02T09:23:56;74925.38;;;-148.63;44.59
61528;BME280;47395;42.032;-8.634;2024-03-02T09:25:57;74843.34;;;-148.63;43.90
61528;BME280;47395;42.032;-8.634;2024-03-02T09:27:58;74913.38;;;-148.63;44.05
61528;BME280;47395;42.032;-8.634;2024-03-02T09:29:59;74913.38;;;-148.63;44.31
61528;BME280;47395;42.032;-8.634;2024-03-02T09:32:00;74915.38;;;-148.63;43.49
61528;BME280;47395;42.032;-8.634;2024-03-02T09:34:01;74893.38;;;-148.63;42.84
61528;BME280;47395;42.032;-8.634;2024-03-02T09:36:02;74909.38;;;-148.63;43.22
61528;BME280;47395;42.032;-8.634;2024-03-02T09:38:03;74885.38;;;-148.63;43.10
61528;BME280;47395;42.032;-8.634;2024-03-02T09:40:05;74917.38;;;-148.63;43.48
61528;BME280;47395;42.032;-8.634;2024-03-02T09:42:07;74861.38;;;-148.63;42.18
61528;BME280;47395;42.032;-8.634;2024-03-02T09:44:08;74807.34;;;-148.63;41.97
61528;BME280;47395;42.032;-8.634;2024-03-02T09:46:09;74789.34;;;-148.63;41.49
61528;BME280;47395;42.032;-8.634;2024-03-02T09:48:11;74897.38;;;-148.63;42.98
61528;BME280;47395;42.032;-8.634;2024-03-02T09:50:12;74879.38;;;-148.63;43.23
61528;BME280;47395;42.032;-8.634;2024-03-02T09:52:13;74885.38;;;-148.63;43.14
61528;BME280;47395;42.032;-8.634;2024-03-02T09:54:18;74915.38;;;-148.63;43.57
61528;BME280;47395;42.032;-8.634;2024-03-02T09:56:21;74849.34;;;-148.63;42.98
61528;BME280;47395;42.032;-8.634;2024-03-02T09:58:22;74901.38;;;-148.63;42.46
61528;BME280;47395;42.032;-8.634;2024-03-02T10:00:23;74979.38;;;-148.63;43.42
61528;BME280;47395;42.032;-8.634;2024-03-02T10:02:23;75009.38;;;-148.63;42.74
61528;BME280;47395;42.032;-8.634;2024-03-02T10:04:29;75053.38;;;-148.63;43.62
61528;BME280;47395;42.032;-8.634;2024-03-02T10:06:31;75101.41;;;-148.63;44.24
61528;BME280;47395;42.032;-8.634;2024-03-02T10:08:42;75111.41;;;-148.63;43.98
61528;BME280;47395;42.032;-8.634;2024-03-02T10:10:44;75025.38;;;-148.63;43.41
61528;BME280;47395;42.032;-8.634;2024-03-02T10:12:45;74955.38;;;-148.63;42.02
61528;BME280;47395;42.032;-8.634;2024-03-02T10:14:47;75017.38;;;-148.63;42.38
61528;BME280;47395;42.032;-8.634;2024-03-02T10:16:49;75053.38;;;-148.63;42.90
61528;BME280;47395;42.032;-8.634;2024-03-02T10:18:50;75049.38;;;-148.63;43.17
61528;BME280;47395;42.032;-8.634;2024-03-02T10:20:51;75035.38;;;-148.63;42.69
61528;BME280;47395;42.032;-8.634;2024-03-02T10:22:52;75109.41;;;-148.63;43.41
61528;BME280;47395;42.032;-8.634;2024-03-02T10:24:53;75147.41;;;-148.63;43.02